Time;durP1;ratioP1;P1;durP2;ratioP2;P2;SDS_P1;SDS_P2;PMS_P1;PMS_P2;Temp;Humidity;BMP_temperature;BMP_pressure;BME280_temperature;BME280_humidity;BME280_pressure;Samples;Min_cycle;Max_cycle;Signal;HPM_P1;HPM_P2
2023/06/26 00:01:57;;;;;;;6.72;5.22;;;;;;;;;;4971050;28;20183;-75
2023/06/26 00:04:22;;;;;;;6.50;5.53;;;;;;;;;;4972953;28;20234;-76
2023/06/26 00:06:47;;;;;;;7.00;6.10;;;;;;;;;;4973733;28;20211;-75
2023/06/26 00:09:12;;;;;;;5.78;5.05;;;;;;;;;;4979238;28;20196;-75
2023/06/26 00:11:38;;;;;;;9.63;5.63;;;;;;;;;;4991548;28;20262;-75
2023/06/26 00:14:03;;;;;;;7.70;5.73;;;;;;;;;;4986393;28;20203;-75
2023/06/26 00:16:28;;;;;;;7.05;5.47;;;;;;;;;;4987463;28;20429;-74
2023/06/26 00:18:54;;;;;;;6.38;4.93;;;;;;;;;;4990321;28;20207;-75
2023/06/26 00:21:19;;;;;;;7.25;5.30;;;;;;;;;;4990443;28;20238;-75
2023/06/26 00:23:45;;;;;;;8.32;5.80;;;;;;;;;;4986132;28;20187;-75
2023/06/26 00:26:10;;;;;;;6.80;5.82;;;;;;;;;;4990943;28;20583;-75
2023/06/26 00:28:36;;;;;;;10.02;6.78;;;;;;;;;;4990666;28;20202;-74
2023/06/26 00:31:01;;;;;;;6.57;5.40;;;;;;;;;;4992052;28;20180;-75
2023/06/26 00:33:26;;;;;;;7.55;6.07;;;;;;;;;;4985471;28;20181;-75
2023/06/26 00:35:51;;;;;;;9.80;6.55;;;;;;;;;;4986828;28;20196;-74
2023/06/26 00:38:17;;;;;;;6.93;6.23;;;;;;;;;;4988873;28;20235;-74
2023/06/26 00:40:42;;;;;;;16.30;6.38;;;;;;;;;;4986101;28;20564;-74
2023/06/26 00:43:07;;;;;;;9.27;5.88;;;;;;;;;;4989291;28;20224;-74
2023/06/26 00:45:32;;;;;;;7.90;5.65;;;;;;;;;;5000320;28;20247;-73
2023/06/26 00:47:58;;;;;;;6.28;5.55;;;;;;;;;;4985299;28;20184;-74
2023/06/26 00:50:23;;;;;;;14.43;5.90;;;;;;;;;;4987694;28;20218;-73
2023/06/26 00:52:48;;;;;;;6.97;5.00;;;;;;;;;;4987097;28;20207;-73
2023/06/26 00:55:14;;;;;;;10.15;5.15;;;;;;;;;;4988185;28;20192;-75
2023/06/26 00:57:39;;;;;;;11.73;5.72;;;;;;;;;;4992993;28;20238;-75
2023/06/26 01:00:05;;;;;;;6.90;5.15;;;;;;;;;;4992205;28;20219;-74
2023/06/26 01:02:33;;;;;;;10.13;5.30;;;;;;;;;;4994682;28;20262;-75
2023/06/26 01:04:59;;;;;;;6.70;5.15;;;;;;;;;;4994320;28;20190;-75
2023/06/26 01:07:24;;;;;;;15.25;4.88;;;;;;;;;;4988517;28;20208;-75
2023/06/26 01:09:50;;;;;;;4.95;3.78;;;;;;;;;;4994986;28;20323;-76
2023/06/26 01:12:15;;;;;;;7.47;4.55;;;;;;;;;;4993433;28;20179;-74
2023/06/26 01:14:40;;;;;;;7.85;4.70;;;;;;;;;;4991029;28;20188;-74
2023/06/26 01:17:07;;;;;;;5.95;4.10;;;;;;;;;;4991559;28;20459;-72
2023/06/26 01:19:33;;;;;;;7.20;3.83;;;;;;;;;;4994948;28;20740;-73
2023/06/26 01:22:15;;;;;;;7.35;3.63;;;;;;;;;;4992779;28;20282;-74
2023/06/26 01:24:44;;;;;;;3.60;3.05;;;;;;;;;;5005929;28;20184;-73
2023/06/26 01:27:11;;;;;;;8.77;3.33;;;;;;;;;;4992943;28;20242;-74
2023/06/26 01:29:37;;;;;;;8.82;3.80;;;;;;;;;;4989429;28;20203;-74
2023/06/26 01:32:02;;;;;;;7.90;4.07;;;;;;;;;;4993373;28;20284;-73
2023/06/26 01:34:27;;;;;;;7.28;3.20;;;;;;;;;;4993702;28;20736;-73
2023/06/26 01:36:52;;;;;;;6.82;3.53;;;;;;;;;;5008471;28;20203;-74
2023/06/26 01:39:18;;;;;;;5.93;3.15;;;;;;;;;;4988425;28;20654;-75
2023/06/26 01:41:44;;;;;;;7.15;4.03;;;;;;;;;;4991702;28;20221;-73
2023/06/26 01:44:17;;;;;;;6.75;3.65;;;;;;;;;;4993001;28;20271;-74
2023/06/26 01:46:49;;;;;;;5.60;3.80;;;;;;;;;;4988663;28;20563;-73
2023/06/26 01:49:21;;;;;;;5.35;3.95;;;;;;;;;;4993006;28;20199;-74
2023/06/26 01:51:50;;;;;;;7.07;3.67;;;;;;;;;;5006474;28;20271;-74
2023/06/26 01:54:17;;;;;;;9.07;3.47;;;;;;;;;;4989483;28;20184;-73
2023/06/26 01:56:44;;;;;;;6.70;3.50;;;;;;;;;;4993786;28;20258;-74
2023/06/26 01:59:11;;;;;;;5.50;3.33;;;;;;;;;;4991416;28;20216;-74
2023/06/26 02:01:36;;;;;;;7.85;3.50;;;;;;;;;;4994089;28;20171;-74
2023/06/26 02:04:01;;;;;;;6.32;3.85;;;;;;;;;;4990738;28;20559;-74
2023/06/26 02:06:27;;;;;;;8.70;3.88;;;;;;;;;;4989404;28;20168;-74
2023/06/26 02:08:52;;;;;;;7.63;3.63;;;;;;;;;;4993920;28;20263;-74
2023/06/26 02:11:17;;;;;;;10.27;3.92;;;;;;;;;;4993630;28;20592;-74
2023/06/26 02:13:42;;;;;;;7.90;3.72;;;;;;;;;;4992462;28;20278;-74
2023/06/26 02:16:07;;;;;;;9.82;3.63;;;;;;;;;;4994440;28;20693;-74
2023/06/26 02:18:33;;;;;;;5.05;3.95;;;;;;;;;;4993888;28;20188;-74
2023/06/26 02:20:58;;;;;;;9.00;4.60;;;;;;;;;;4993837;28;20187;-74
2023/06/26 02:23:23;;;;;;;10.00;4.47;;;;;;;;;;4984305;28;20207;-74
2023/06/26 02:25:48;;;;;;;7.72;3.88;;;;;;;;;;4994943;28;20175;-73
2023/06/26 02:28:14;;;;;;;10.82;3.35;;;;;;;;;;4992756;28;20216;-74
2023/06/26 02:30:39;;;;;;;6.07;3.47;;;;;;;;;;4995845;28;20211;-73
2023/06/26 02:33:04;;;;;;;10.45;4.07;;;;;;;;;;4989599;28;20176;-74
2023/06/26 02:35:29;;;;;;;9.45;4.22;;;;;;;;;;4992251;28;20204;-74
2023/06/26 02:37:54;;;;;;;8.32;3.72;;;;;;;;;;4985754;28;20672;-73
2023/06/26 02:40:20;;;;;;;7.32;4.25;;;;;;;;;;4989692;28;20665;-73
2023/06/26 02:42:45;;;;;;;8.75;3.45;;;;;;;;;;4988110;28;20191;-74
2023/06/26 02:45:10;;;;;;;9.35;3.70;;;;;;;;;;4988889;28;20184;-74
2023/06/26 02:47:39;;;;;;;9.95;4.18;;;;;;;;;;4989011;28;20160;-74
2023/06/26 02:50:04;;;;;;;11.02;4.30;;;;;;;;;;4990489;28;20665;-74
2023/06/26 02:52:29;;;;;;;10.80;4.10;;;;;;;;;;4990849;28;20198;-73
2023/06/26 02:54:55;;;;;;;8.85;4.18;;;;;;;;;;4986398;28;20191;-74
2023/06/26 02:57:20;;;;;;;10.80;3.97;;;;;;;;;;4989999;28;20554;-74
2023/06/26 02:59:45;;;;;;;10.35;3.83;;;;;;;;;;4992265;28;20218;-75
2023/06/26 03:02:10;;;;;;;9.82;4.35;;;;;;;;;;4992619;28;20184;-74
2023/06/26 03:04:36;;;;;;;7.75;4.32;;;;;;;;;;4987058;28;20207;-75
2023/06/26 03:07:01;;;;;;;11.13;4.35;;;;;;;;;;4983094;28;20186;-74
2023/06/26 03:09:26;;;;;;;7.57;4.22;;;;;;;;;;4986705;28;20203;-74
2023/06/26 03:11:52;;;;;;;8.13;3.88;;;;;;;;;;4990352;28;20241;-74
2023/06/26 03:14:18;;;;;;;10.93;4.65;;;;;;;;;;4983622;28;20175;-74
2023/06/26 03:16:43;;;;;;;10.02;5.00;;;;;;;;;;4988455;28;20203;-74
2023/06/26 03:19:09;;;;;;;11.02;3.80;;;;;;;;;;4988968;28;20591;-74
2023/06/26 03:21:34;;;;;;;7.72;4.47;;;;;;;;;;4991946;28;20748;-73
2023/06/26 03:23:59;;;;;;;8.43;4.38;;;;;;;;;;4988708;28;20183;-74
2023/06/26 03:26:27;;;;;;;8.25;4.20;;;;;;;;;;4990660;28;20687;-73
2023/06/26 03:28:53;;;;;;;8.68;3.97;;;;;;;;;;4982401;28;20609;-74
2023/06/26 03:31:18;;;;;;;10.63;4.63;;;;;;;;;;4991225;28;20171;-74
2023/06/26 03:33:43;;;;;;;10.40;4.28;;;;;;;;;;4978958;28;20171;-75
2023/06/26 03:36:09;;;;;;;9.00;5.05;;;;;;;;;;4986990;28;20273;-74
2023/06/26 03:38:34;;;;;;;19.58;5.25;;;;;;;;;;4989922;28;20203;-74
2023/06/26 03:40:59;;;;;;;12.25;4.55;;;;;;;;;;4979877;28;20274;-74
2023/06/26 03:43:24;;;;;;;10.73;4.65;;;;;;;;;;4991467;28;20199;-74
2023/06/26 03:45:50;;;;;;;16.77;4.78;;;;;;;;;;4983752;28;21042;-75
2023/06/26 03:48:15;;;;;;;16.35;5.03;;;;;;;;;;4991439;28;20667;-76
2023/06/26 03:50:40;;;;;;;20.27;5.75;;;;;;;;;;4987376;28;20334;-75
2023/06/26 03:53:05;;;;;;;13.00;4.65;;;;;;;;;;4987964;28;20179;-75
2023/06/26 03:55:31;;;;;;;14.77;5.47;;;;;;;;;;4987020;28;20207;-75
2023/06/26 03:57:56;;;;;;;12.57;4.18;;;;;;;;;;4984720;28;20176;-75
2023/06/26 04:00:21;;;;;;;9.25;4.28;;;;;;;;;;4982334;28;20677;-75
2023/06/26 04:02:47;;;;;;;8.23;3.70;;;;;;;;;;4986918;28;20603;-74
2023/06/26 04:05:12;;;;;;;9.10;3.70;;;;;;;;;;4988585;28;20546;-75
2023/06/26 04:07:37;;;;;;;13.75;4.75;;;;;;;;;;4983446;28;20586;-74
2023/06/26 04:10:03;;;;;;;8.55;4.60;;;;;;;;;;4991453;28;20635;-75
2023/06/26 04:12:28;;;;;;;8.70;4.40;;;;;;;;;;4986317;28;20208;-74
2023/06/26 04:14:53;;;;;;;8.25;4.28;;;;;;;;;;5008086;28;20187;-75
2023/06/26 04:17:18;;;;;;;13.80;4.38;;;;;;;;;;4991364;28;20199;-74
2023/06/26 04:19:44;;;;;;;9.00;3.72;;;;;;;;;;4985893;28;20251;-75
2023/06/26 04:22:09;;;;;;;6.97;3.65;;;;;;;;;;4984709;28;20202;-75
2023/06/26 04:24:34;;;;;;;8.30;3.67;;;;;;;;;;4985177;28;20184;-74
2023/06/26 04:26:59;;;;;;;9.82;4.00;;;;;;;;;;4985722;28;20230;-75
2023/06/26 04:29:26;;;;;;;9.68;3.97;;;;;;;;;;4992026;28;20215;-75
2023/06/26 04:31:52;;;;;;;7.35;3.20;;;;;;;;;;4994668;28;20218;-75
2023/06/26 04:34:17;;;;;;;10.77;3.92;;;;;;;;;;4992499;28;20183;-75
2023/06/26 04:36:47;;;;;;;12.98;3.70;;;;;;;;;;4990437;28;20211;-75
2023/06/26 04:39:14;;;;;;;9.30;3.92;;;;;;;;;;4990779;28;20215;-75
2023/06/26 04:41:39;;;;;;;12.02;3.83;;;;;;;;;;4994813;28;20277;-75
2023/06/26 04:44:04;;;;;;;12.98;4.22;;;;;;;;;;4987146;28;20295;-75
2023/06/26 04:46:30;;;;;;;7.40;3.47;;;;;;;;;;4989229;28;20660;-75
2023/06/26 04:48:57;;;;;;;7.55;3.63;;;;;;;;;;4994320;28;20265;-74
2023/06/26 04:51:23;;;;;;;9.65;3.28;;;;;;;;;;4994090;28;20187;-73
2023/06/26 04:53:48;;;;;;;8.82;3.30;;;;;;;;;;4988173;28;20491;-75
2023/06/26 04:56:13;;;;;;;7.28;2.72;;;;;;;;;;5010236;28;20222;-74
2023/06/26 04:58:38;;;;;;;9.65;3.10;;;;;;;;;;4995273;28;20195;-74
2023/06/26 05:01:06;;;;;;;7.15;3.60;;;;;;;;;;4993458;28;20692;-75
2023/06/26 05:03:31;;;;;;;8.05;3.15;;;;;;;;;;4995145;28;20190;-74
2023/06/26 05:05:57;;;;;;;6.10;2.95;;;;;;;;;;4994237;28;20192;-74
2023/06/26 05:08:22;;;;;;;6.78;3.15;;;;;;;;;;4994910;28;20199;-74
2023/06/26 05:10:48;;;;;;;6.55;2.88;;;;;;;;;;4986673;28;20183;-74
2023/06/26 05:13:15;;;;;;;9.35;3.42;;;;;;;;;;4994473;28;20183;-74
2023/06/26 05:15:40;;;;;;;5.57;3.00;;;;;;;;;;4992366;28;20227;-75
2023/06/26 05:18:06;;;;;;;6.35;2.88;;;;;;;;;;4985359;28;20207;-74
2023/06/26 05:20:31;;;;;;;5.63;2.83;;;;;;;;;;4985419;28;20212;-75
2023/06/26 05:22:57;;;;;;;9.35;4.03;;;;;;;;;;4989435;28;20554;-74
2023/06/26 05:25:23;;;;;;;6.43;3.58;;;;;;;;;;4985143;28;20531;-74
2023/06/26 05:27:48;;;;;;;6.00;2.90;;;;;;;;;;4984609;28;20195;-75
2023/06/26 05:30:14;;;;;;;4.80;2.38;;;;;;;;;;4984989;28;20204;-75
2023/06/26 05:32:40;;;;;;;4.60;3.00;;;;;;;;;;4988272;28;20195;-75
2023/06/26 05:35:06;;;;;;;6.50;3.45;;;;;;;;;;4988621;28;20610;-75
2023/06/26 05:37:32;;;;;;;7.28;2.80;;;;;;;;;;4990979;28;20258;-75
2023/06/26 05:39:57;;;;;;;9.27;2.92;;;;;;;;;;4985857;28;20204;-75
2023/06/26 05:42:22;;;;;;;11.07;3.55;;;;;;;;;;4990529;28;20179;-77
2023/06/26 05:44:47;;;;;;;5.88;2.70;;;;;;;;;;4986042;28;20183;-74
2023/06/26 05:47:13;;;;;;;7.50;2.40;;;;;;;;;;4991143;28;20201;-75
2023/06/26 05:49:38;;;;;;;7.65;3.10;;;;;;;;;;4990196;28;20279;-75
2023/06/26 05:52:03;;;;;;;6.60;2.60;;;;;;;;;;4993686;28;20180;-75
2023/06/26 05:54:29;;;;;;;5.78;2.88;;;;;;;;;;4990509;28;20180;-75
2023/06/26 05:56:56;;;;;;;6.15;2.00;;;;;;;;;;4988041;28;20576;-76
2023/06/26 05:59:22;;;;;;;5.15;2.17;;;;;;;;;;4995844;23;20228;-69
2023/06/26 06:01:47;;;;;;;4.35;2.10;;;;;;;;;;4960435;28;20235;-69
2023/06/26 06:04:12;;;;;;;3.85;2.08;;;;;;;;;;4969633;28;20184;-70
2023/06/26 06:06:37;;;;;;;5.93;2.60;;;;;;;;;;4982861;28;20181;-69
2023/06/26 06:09:03;;;;;;;5.13;2.35;;;;;;;;;;4966473;28;20572;-69
2023/06/26 06:11:28;;;;;;;5.38;2.00;;;;;;;;;;4970875;28;20188;-69
2023/06/26 06:13:53;;;;;;;7.10;2.53;;;;;;;;;;4962539;28;20231;-68
2023/06/26 06:16:18;;;;;;;3.88;2.42;;;;;;;;;;4970866;28;20223;-69
2023/06/26 06:18:44;;;;;;;9.25;2.40;;;;;;;;;;4970648;28;20188;-69
2023/06/26 06:21:09;;;;;;;3.95;2.17;;;;;;;;;;4966874;28;20573;-68
2023/06/26 06:23:34;;;;;;;3.35;2.30;;;;;;;;;;4968435;28;20618;-69
2023/06/26 06:25:59;;;;;;;3.85;2.17;;;;;;;;;;4973022;28;20190;-69
2023/06/26 06:28:24;;;;;;;2.78;1.95;;;;;;;;;;4964521;28;20204;-70
2023/06/26 06:30:50;;;;;;;4.57;2.38;;;;;;;;;;4968357;28;20283;-69
2023/06/26 06:33:15;;;;;;;5.65;2.10;;;;;;;;;;4965196;28;20184;-69
2023/06/26 06:35:40;;;;;;;7.57;2.47;;;;;;;;;;4968245;28;20246;-69
2023/06/26 06:38:05;;;;;;;6.18;2.03;;;;;;;;;;4967917;28;20180;-69
2023/06/26 06:40:30;;;;;;;2.88;2.25;;;;;;;;;;4967847;28;20215;-69
2023/06/26 06:42:56;;;;;;;6.45;2.42;;;;;;;;;;4966418;28;20192;-68
2023/06/26 06:45:21;;;;;;;4.25;1.85;;;;;;;;;;4972870;28;20172;-69
2023/06/26 06:47:46;;;;;;;4.53;2.25;;;;;;;;;;4969286;28;20184;-68
2023/06/26 06:50:12;;;;;;;7.82;2.13;;;;;;;;;;4968883;28;20283;-68
2023/06/26 06:52:38;;;;;;;5.75;2.10;;;;;;;;;;4971889;28;20183;-69
2023/06/26 06:55:06;;;;;;;3.38;2.28;;;;;;;;;;4972199;28;20180;-69
2023/06/26 06:57:35;;;;;;;6.47;2.92;;;;;;;;;;4970501;28;20288;-68
2023/06/26 07:00:00;;;;;;;9.00;2.45;;;;;;;;;;4968121;28;20227;-69
2023/06/26 07:02:26;;;;;;;3.67;1.83;;;;;;;;;;4966928;28;20537;-69
2023/06/26 07:04:51;;;;;;;3.05;1.38;;;;;;;;;;4963041;28;20204;-69
2023/06/26 07:07:18;;;;;;;5.65;1.70;;;;;;;;;;4964074;28;20239;-69
2023/06/26 07:09:44;;;;;;;5.60;1.73;;;;;;;;;;4966173;28;20597;-70
2023/06/26 07:12:09;;;;;;;2.42;1.25;;;;;;;;;;4971470;28;20192;-69
2023/06/26 07:14:34;;;;;;;2.72;1.65;;;;;;;;;;4967697;28;20184;-71
2023/06/26 07:16:59;;;;;;;8.30;1.92;;;;;;;;;;4956884;28;20236;-70
2023/06/26 07:19:25;;;;;;;5.63;1.73;;;;;;;;;;4969376;28;20200;-70
2023/06/26 07:21:50;;;;;;;6.03;1.95;;;;;;;;;;4967693;28;20199;-70
2023/06/26 07:24:15;;;;;;;3.08;1.40;;;;;;;;;;4968556;28;20180;-69
2023/06/26 07:26:40;;;;;;;5.90;1.67;;;;;;;;;;4969915;28;20630;-70
2023/06/26 07:29:05;;;;;;;4.15;1.73;;;;;;;;;;4966486;28;20203;-70
2023/06/26 07:31:31;;;;;;;2.67;1.23;;;;;;;;;;4972191;28;20218;-70
2023/06/26 07:33:56;;;;;;;3.72;1.48;;;;;;;;;;4967500;28;20176;-70
2023/06/26 07:36:21;;;;;;;2.90;1.23;;;;;;;;;;4968907;28;20200;-70
2023/06/26 07:38:46;;;;;;;8.85;1.48;;;;;;;;;;4967957;28;20172;-70
2023/06/26 07:41:11;;;;;;;2.65;1.08;;;;;;;;;;4966442;28;20236;-70
2023/06/26 07:43:37;;;;;;;5.60;1.30;;;;;;;;;;4961905;28;20177;-71
2023/06/26 07:46:02;;;;;;;10.82;1.80;;;;;;;;;;4969872;28;20418;-71
2023/06/26 07:48:27;;;;;;;4.70;1.33;;;;;;;;;;4968369;28;20168;-70
2023/06/26 07:50:53;;;;;;;4.07;1.38;;;;;;;;;;4961350;28;20291;-71
2023/06/26 07:53:18;;;;;;;3.53;1.42;;;;;;;;;;4966904;28;20172;-71
2023/06/26 07:55:43;;;;;;;4.28;1.40;;;;;;;;;;4959234;28;20291;-70
2023/06/26 07:58:09;;;;;;;2.28;1.13;;;;;;;;;;4961375;28;20180;-70
2023/06/26 08:00:34;;;;;;;3.08;1.42;;;;;;;;;;4964493;28;20208;-70
2023/06/26 08:03:00;;;;;;;8.43;1.77;;;;;;;;;;4967936;28;20184;-70
2023/06/26 08:05:25;;;;;;;7.57;1.65;;;;;;;;;;4972886;28;20176;-70
2023/06/26 08:07:50;;;;;;;5.60;1.30;;;;;;;;;;4966801;28;20232;-70
2023/06/26 08:10:15;;;;;;;5.43;1.20;;;;;;;;;;4969022;28;20193;-71
2023/06/26 08:12:42;;;;;;;5.10;1.35;;;;;;;;;;4970993;28;20172;-70
2023/06/26 08:15:08;;;;;;;3.22;1.80;;;;;;;;;;4974030;28;20598;-70
2023/06/26 08:17:33;;;;;;;2.53;1.00;;;;;;;;;;4975395;28;20204;-70
2023/06/26 08:19:59;;;;;;;3.30;1.80;;;;;;;;;;4971660;28;20197;-70
2023/06/26 08:22:24;;;;;;;3.33;0.93;;;;;;;;;;4967597;28;20551;-69
2023/06/26 08:24:49;;;;;;;3.88;1.52;;;;;;;;;;4973551;28;20179;-71
2023/06/26 08:27:14;;;;;;;5.50;1.10;;;;;;;;;;4973222;28;20446;-70
2023/06/26 08:29:39;;;;;;;2.50;1.40;;;;;;;;;;4971333;28;20681;-70
2023/06/26 08:32:05;;;;;;;4.95;1.38;;;;;;;;;;4974583;28;20180;-70
2023/06/26 08:34:30;;;;;;;2.45;1.02;;;;;;;;;;4972889;28;20204;-71
2023/06/26 08:36:55;;;;;;;1.73;1.20;;;;;;;;;;4971990;28;20212;-70
2023/06/26 08:39:20;;;;;;;4.32;1.02;;;;;;;;;;4974904;28;20196;-70
2023/06/26 08:41:46;;;;;;;5.50;1.30;;;;;;;;;;4968256;28;20176;-70
2023/06/26 08:44:11;;;;;;;3.92;1.50;;;;;;;;;;4966914;28;20243;-71
2023/06/26 08:46:37;;;;;;;3.55;0.98;;;;;;;;;;4964075;28;20691;-70
2023/06/26 08:49:12;;;;;;;2.42;1.00;;;;;;;;;;4968366;28;20203;-70
2023/06/26 08:51:38;;;;;;;2.50;1.20;;;;;;;;;;4964697;28;20688;-71
2023/06/26 08:54:07;;;;;;;5.00;1.83;;;;;;;;;;4973614;28;20212;-70
2023/06/26 08:56:35;;;;;;;5.68;1.77;;;;;;;;;;4968304;28;20212;-70
2023/06/26 08:59:01;;;;;;;2.10;0.82;;;;;;;;;;4960922;28;20197;-70
2023/06/26 09:01:26;;;;;;;1.60;0.80;;;;;;;;;;4968177;28;20176;-70
2023/06/26 09:03:51;;;;;;;3.83;1.48;;;;;;;;;;4964896;28;20242;-70
2023/06/26 09:06:18;;;;;;;3.90;1.50;;;;;;;;;;4971113;28;20711;-70
2023/06/26 09:08:43;;;;;;;3.60;1.17;;;;;;;;;;4964022;28;20193;-70
2023/06/26 09:11:08;;;;;;;4.35;1.38;;;;;;;;;;4961614;28;20187;-70
2023/06/26 09:13:34;;;;;;;3.22;1.40;;;;;;;;;;4972084;28;20275;-70
2023/06/26 09:15:59;;;;;;;4.55;1.10;;;;;;;;;;4974386;28;20232;-70
2023/06/26 09:18:24;;;;;;;4.07;1.23;;;;;;;;;;4960635;28;20264;-70
2023/06/26 09:20:50;;;;;;;1.23;1.00;;;;;;;;;;4966000;28;20235;-70
2023/06/26 09:23:16;;;;;;;3.53;1.30;;;;;;;;;;4967164;28;20177;-70
2023/06/26 09:25:41;;;;;;;2.85;1.35;;;;;;;;;;4969998;28;20188;-70
2023/06/26 09:28:06;;;;;;;2.78;0.95;;;;;;;;;;4966678;28;20608;-70
2023/06/26 09:30:32;;;;;;;5.10;1.33;;;;;;;;;;4963416;28;20674;-70
2023/06/26 09:32:57;;;;;;;4.03;1.30;;;;;;;;;;4968095;28;20200;-70
2023/06/26 09:35:22;;;;;;;3.13;1.63;;;;;;;;;;4965467;28;20559;-71
2023/06/26 09:37:48;;;;;;;3.42;1.20;;;;;;;;;;4970306;28;20212;-70
2023/06/26 09:40:14;;;;;;;5.35;1.48;;;;;;;;;;4966176;28;20208;-71
2023/06/26 09:42:39;;;;;;;3.10;1.02;;;;;;;;;;4965700;28;20181;-70
2023/06/26 09:45:04;;;;;;;4.82;1.05;;;;;;;;;;4964061;28;20169;-70
2023/06/26 09:47:30;;;;;;;2.78;1.63;;;;;;;;;;4964718;28;20636;-70
2023/06/26 09:49:55;;;;;;;2.40;1.67;;;;;;;;;;4957351;28;20201;-70
2023/06/26 09:52:21;;;;;;;7.10;1.10;;;;;;;;;;4966224;28;20219;-70
2023/06/26 09:54:46;;;;;;;6.65;1.40;;;;;;;;;;4968233;28;20908;-70
2023/06/26 09:57:11;;;;;;;1.60;0.65;;;;;;;;;;4968680;28;20204;-70
2023/06/26 09:59:37;;;;;;;3.75;1.10;;;;;;;;;;4965492;28;20213;-70
2023/06/26 10:02:02;;;;;;;2.83;1.30;;;;;;;;;;4964693;28;20188;-71
2023/06/26 10:04:27;;;;;;;2.45;0.90;;;;;;;;;;4967633;28;20220;-71
2023/06/26 10:06:54;;;;;;;2.88;0.65;;;;;;;;;;4966820;28;20185;-69
2023/06/26 10:09:20;;;;;;;4.32;1.20;;;;;;;;;;4961188;28;20197;-70
2023/06/26 10:12:06;;;;;;;2.85;1.10;;;;;;;;;;4968471;28;20191;-70
2023/06/26 10:14:39;;;;;;;2.97;0.95;;;;;;;;;;4967238;28;20185;-70
2023/06/26 10:17:07;;;;;;;4.00;2.10;;;;;;;;;;4959262;28;20212;-70
2023/06/26 10:19:33;;;;;;;3.90;1.00;;;;;;;;;;4961871;28;20200;-70
2023/06/26 10:21:58;;;;;;;3.50;1.15;;;;;;;;;;4962154;28;20635;-70
2023/06/26 10:24:24;;;;;;;8.25;1.88;;;;;;;;;;4964137;28;20208;-70
2023/06/26 10:26:51;;;;;;;4.72;1.13;;;;;;;;;;4970426;28;20200;-70
2023/06/26 10:29:17;;;;;;;1.50;1.02;;;;;;;;;;4968829;28;20204;-70
2023/06/26 10:31:45;;;;;;;2.00;0.80;;;;;;;;;;4964357;28;20181;-69
2023/06/26 10:34:10;;;;;;;3.13;1.05;;;;;;;;;;4965450;28;20276;-68
2023/06/26 10:36:36;;;;;;;1.90;0.98;;;;;;;;;;4971375;28;20197;-70
2023/06/26 10:39:05;;;;;;;5.20;1.77;;;;;;;;;;4968906;28;20597;-70
2023/06/26 10:41:36;;;;;;;3.25;1.48;;;;;;;;;;4968073;28;20263;-70
2023/06/26 10:44:01;;;;;;;2.28;1.00;;;;;;;;;;4967925;28;20267;-70
2023/06/26 10:46:26;;;;;;;1.52;1.02;;;;;;;;;;4971354;28;20241;-70
2023/06/26 10:49:01;;;;;;;1.85;0.80;;;;;;;;;;4969143;28;20227;-70
2023/06/26 10:51:30;;;;;;;3.45;0.88;;;;;;;;;;4967698;28;20270;-70
2023/06/26 10:53:56;;;;;;;3.45;1.85;;;;;;;;;;4969093;28;20204;-69
2023/06/26 10:56:21;;;;;;;1.67;1.10;;;;;;;;;;4971373;28;20203;-70
2023/06/26 10:58:47;;;;;;;2.25;1.33;;;;;;;;;;4966906;28;20212;-70
2023/06/26 11:01:15;;;;;;;2.58;1.08;;;;;;;;;;4952764;28;20172;-70
2023/06/26 11:03:49;;;;;;;3.45;1.23;;;;;;;;;;4972051;28;20175;-70
2023/06/26 11:06:17;;;;;;;3.42;1.38;;;;;;;;;;4967034;28;20184;-69
2023/06/26 11:08:46;;;;;;;3.78;1.30;;;;;;;;;;4969843;28;20184;-70
2023/06/26 11:11:12;;;;;;;3.20;1.00;;;;;;;;;;4973670;28;20172;-69
2023/06/26 11:13:37;;;;;;;3.58;1.10;;;;;;;;;;4969332;28;20538;-69
2023/06/26 11:16:02;;;;;;;3.30;0.90;;;;;;;;;;4971762;28;20196;-70
2023/06/26 11:18:28;;;;;;;3.97;1.00;;;;;;;;;;4972045;28;20195;-69
2023/06/26 11:20:53;;;;;;;1.88;0.80;;;;;;;;;;4964429;28;20207;-70
2023/06/26 11:23:22;;;;;;;2.55;1.00;;;;;;;;;;4968541;28;20674;-71
2023/06/26 11:25:47;;;;;;;3.70;1.52;;;;;;;;;;4966079;28;20187;-70
2023/06/26 11:28:12;;;;;;;2.08;1.10;;;;;;;;;;4963391;28;20168;-69
2023/06/26 11:30:40;;;;;;;2.75;0.90;;;;;;;;;;4972164;28;20196;-70
2023/06/26 11:33:06;;;;;;;2.97;0.70;;;;;;;;;;4965012;28;20187;-70
2023/06/26 11:35:32;;;;;;;0.95;0.63;;;;;;;;;;4968174;28;20243;-70
2023/06/26 11:38:00;;;;;;;3.92;1.00;;;;;;;;;;4957818;28;20654;-70
2023/06/26 11:40:31;;;;;;;2.35;0.50;;;;;;;;;;4972351;28;20204;-70
2023/06/26 11:42:57;;;;;;;0.73;0.70;;;;;;;;;;4975406;28;20195;-70
2023/06/26 11:45:22;;;;;;;1.00;0.47;;;;;;;;;;4979590;28;20725;-69
2023/06/26 11:47:49;;;;;;;2.38;0.57;;;;;;;;;;4972456;28;20216;-69
2023/06/26 11:50:17;;;;;;;1.77;1.05;;;;;;;;;;4972353;28;20231;-70
2023/06/26 11:52:43;;;;;;;3.08;0.98;;;;;;;;;;4971029;28;20188;-70
2023/06/26 11:55:10;;;;;;;3.03;0.60;;;;;;;;;;4968191;28;20263;-70
2023/06/26 11:57:35;;;;;;;1.25;0.45;;;;;;;;;;4972457;28;20204;-70
2023/06/26 12:00:10;;;;;;;1.23;0.60;;;;;;;;;;4971781;23;20333;-77
2023/06/26 12:02:35;;;;;;;1.58;0.55;;;;;;;;;;4968498;28;20539;-78
2023/06/26 12:05:00;;;;;;;2.40;1.13;;;;;;;;;;4973823;28;20176;-76
2023/06/26 12:07:26;;;;;;;1.60;0.80;;;;;;;;;;4973489;28;20425;-77
2023/06/26 12:09:51;;;;;;;1.37;0.60;;;;;;;;;;4976077;28;20208;-78
2023/06/26 12:12:18;;;;;;;4.47;0.60;;;;;;;;;;4976075;28;20403;-76
2023/06/26 12:14:43;;;;;;;2.15;0.82;;;;;;;;;;4975810;28;20196;-77
2023/06/26 12:17:12;;;;;;;2.05;0.50;;;;;;;;;;4977767;28;20214;-76
2023/06/26 12:19:38;;;;;;;4.28;0.60;;;;;;;;;;4973705;28;20263;-76
2023/06/26 12:22:07;;;;;;;1.63;0.98;;;;;;;;;;4974403;28;20180;-77
2023/06/26 12:24:35;;;;;;;2.67;0.98;;;;;;;;;;4976884;28;20264;-76
2023/06/26 12:27:00;;;;;;;1.00;0.50;;;;;;;;;;4976326;28;20173;-77
2023/06/26 12:29:31;;;;;;;1.40;0.40;;;;;;;;;;4977978;28;20199;-78
2023/06/26 12:31:56;;;;;;;1.00;0.47;;;;;;;;;;4971633;28;20426;-78
2023/06/26 12:34:32;;;;;;;1.27;0.60;;;;;;;;;;4973622;28;20187;-77
2023/06/26 12:37:01;;;;;;;1.70;0.60;;;;;;;;;;4975591;28;20203;-77
2023/06/26 12:39:27;;;;;;;1.00;0.50;;;;;;;;;;4975288;28;20235;-77
2023/06/26 12:41:53;;;;;;;1.52;0.60;;;;;;;;;;4975728;28;20177;-77
2023/06/26 12:44:19;;;;;;;2.80;0.80;;;;;;;;;;4976440;28;20168;-77
2023/06/26 12:46:46;;;;;;;4.90;0.68;;;;;;;;;;4979211;28;20204;-77
2023/06/26 12:49:12;;;;;;;2.75;1.15;;;;;;;;;;4978082;28;20180;-77
2023/06/26 12:51:37;;;;;;;1.77;0.73;;;;;;;;;;4977912;28;20259;-75
2023/06/26 12:54:02;;;;;;;2.30;0.65;;;;;;;;;;4977084;28;20204;-77
2023/06/26 12:56:27;;;;;;;2.42;0.82;;;;;;;;;;4978269;28;20196;-77
2023/06/26 12:58:53;;;;;;;1.55;0.75;;;;;;;;;;4981107;28;20180;-78
2023/06/26 13:01:19;;;;;;;4.43;0.57;;;;;;;;;;4977652;28;20204;-78
2023/06/26 13:03:45;;;;;;;0.82;0.60;;;;;;;;;;4967087;28;20448;-78
2023/06/26 13:06:10;;;;;;;2.83;0.60;;;;;;;;;;4977395;28;20568;-78
2023/06/26 13:08:36;;;;;;;3.03;0.70;;;;;;;;;;4977489;28;20180;-78
2023/06/26 13:11:01;;;;;;;0.90;0.68;;;;;;;;;;4976805;28;20329;-77
2023/06/26 13:13:27;;;;;;;3.03;0.90;;;;;;;;;;4977917;28;20180;-77
2023/06/26 13:15:52;;;;;;;0.38;0.30;;;;;;;;;;4977096;28;20177;-77
2023/06/26 13:18:17;;;;;;;3.20;0.60;;;;;;;;;;4977475;28;20192;-79
2023/06/26 13:20:42;;;;;;;0.80;0.50;;;;;;;;;;4973305;28;20243;-76
2023/06/26 13:23:08;;;;;;;3.42;0.82;;;;;;;;;;4977019;28;20211;-76
2023/06/26 13:25:33;;;;;;;0.73;0.60;;;;;;;;;;4976364;28;20188;-76
2023/06/26 13:27:58;;;;;;;1.37;0.80;;;;;;;;;;4977951;28;20259;-77
2023/06/26 13:30:24;;;;;;;1.20;0.60;;;;;;;;;;4976015;28;20497;-78
2023/06/26 13:32:49;;;;;;;2.08;0.80;;;;;;;;;;4976734;28;20179;-77
2023/06/26 13:35:14;;;;;;;2.00;0.50;;;;;;;;;;4978348;28;20165;-76
2023/06/26 13:37:40;;;;;;;1.63;0.85;;;;;;;;;;4962968;28;20238;-77
2023/06/26 13:40:06;;;;;;;2.10;0.73;;;;;;;;;;4994377;28;20231;-78
2023/06/26 13:42:32;;;;;;;1.67;0.65;;;;;;;;;;4976260;28;20681;-77
2023/06/26 13:44:57;;;;;;;2.35;0.60;;;;;;;;;;4975679;28;20180;-77
2023/06/26 13:47:23;;;;;;;1.35;0.65;;;;;;;;;;4977778;28;20203;-76
2023/06/26 13:49:48;;;;;;;2.30;0.70;;;;;;;;;;4974704;28;20231;-77
2023/06/26 13:52:13;;;;;;;0.90;0.50;;;;;;;;;;4976451;28;20267;-76
2023/06/26 13:54:40;;;;;;;2.08;0.73;;;;;;;;;;4976970;28;20458;-77
2023/06/26 13:57:05;;;;;;;1.67;1.02;;;;;;;;;;4976149;28;20697;-77
2023/06/26 13:59:31;;;;;;;1.90;0.70;;;;;;;;;;4972963;28;20200;-80
2023/06/26 14:01:56;;;;;;;0.93;0.68;;;;;;;;;;4971658;28;20184;-77
2023/06/26 14:04:22;;;;;;;1.25;0.70;;;;;;;;;;4968675;28;20560;-76
2023/06/26 14:06:47;;;;;;;5.70;0.90;;;;;;;;;;4973823;28;20184;-75
2023/06/26 14:09:12;;;;;;;1.83;1.15;;;;;;;;;;4975304;28;20179;-75
2023/06/26 14:11:37;;;;;;;1.90;0.82;;;;;;;;;;4976052;28;20672;-75
2023/06/26 14:14:03;;;;;;;1.05;0.57;;;;;;;;;;4973464;28;20207;-76
2023/06/26 14:16:28;;;;;;;3.88;1.48;;;;;;;;;;4974824;28;20192;-77
2023/06/26 14:18:53;;;;;;;2.15;1.15;;;;;;;;;;4973042;28;20188;-77
2023/06/26 14:21:19;;;;;;;3.88;1.05;;;;;;;;;;4975576;28;20571;-76
2023/06/26 14:23:45;;;;;;;2.15;0.80;;;;;;;;;;4976338;28;20173;-75
2023/06/26 14:26:10;;;;;;;1.85;0.65;;;;;;;;;;4976477;28;20214;-76
2023/06/26 14:28:36;;;;;;;3.28;0.73;;;;;;;;;;4974091;28;20192;-77
2023/06/26 14:31:01;;;;;;;1.35;0.73;;;;;;;;;;4974409;28;20208;-79
2023/06/26 14:33:26;;;;;;;2.17;1.27;;;;;;;;;;4976607;28;20263;-77